Time;durP1;ratioP1;P1;durP2;ratioP2;P2;SDS_P1;SDS_P2;PMS_P1;PMS_P2;Temp;Humidity;BMP_temperature;BMP_pressure;BME280_temperature;BME280_humidity;BME280_pressure;Samples;Min_cycle;Max_cycle;Signal;HPM_P1;HPM_P2
2021/10/04 00:01:42;;;;;;;;;1.00;1.00;;;;;13.32;78.03;101193.50;5074869;28;45237;-69
2021/10/04 00:04:07;;;;;;;;;2.00;1.00;;;;;13.26;78.17;101194.66;5071774;27;46512;-69
2021/10/04 00:06:32;;;;;;;;;2.00;2.00;;;;;13.22;78.54;101208.91;5065120;28;49589;-69
2021/10/04 00:08:58;;;;;;;;;2.00;2.00;;;;;13.17;78.41;101208.25;5073913;27;45623;-69
2021/10/04 00:11:23;;;;;;;;;1.75;1.75;;;;;13.13;78.14;101206.66;5074578;28;52701;-69
2021/10/04 00:13:48;;;;;;;;;1.25;1.25;;;;;13.12;78.57;101207.59;5076076;28;45343;-69
2021/10/04 00:16:14;;;;;;;;;0.25;0.25;;;;;13.11;78.56;101205.88;5073844;27;45472;-69
2021/10/04 00:18:39;;;;;;;;;1.50;1.25;;;;;13.10;78.62;101201.50;5074226;27;45402;-69
2021/10/04 00:21:04;;;;;;;;;2.00;0.75;;;;;13.10;78.58;101198.03;5074244;27;45382;-69
2021/10/04 00:23:30;;;;;;;;;1.00;1.00;;;;;13.11;78.71;101195.31;5074126;27;46625;-69
2021/10/04 00:25:55;;;;;;;;;0.25;0.25;;;;;13.13;78.64;101195.25;5075034;28;45502;-69
2021/10/04 00:28:20;;;;;;;;;0.75;0.75;;;;;13.10;78.59;101198.88;5066113;28;45441;-69
2021/10/04 00:30:46;;;;;;;;;1.75;1.00;;;;;13.10;78.54;101200.66;5071081;28;45595;-69
2021/10/04 00:33:11;;;;;;;;;1.00;1.00;;;;;13.05;78.67;101195.63;5072433;27;45389;-69
2021/10/04 00:35:37;;;;;;;;;1.25;0.00;;;;;13.00;78.78;101203.75;5073785;27;45562;-69
2021/10/04 00:38:03;;;;;;;;;0.75;0.00;;;;;13.01;78.92;101208.09;5075432;28;45749;-69
2021/10/04 00:40:31;;;;;;;;;2.00;1.00;;;;;12.99;78.85;101206.44;5074377;27;45545;-69
2021/10/04 00:42:57;;;;;;;;;0.75;0.75;;;;;12.98;78.75;101212.63;5073708;27;47267;-69
2021/10/04 00:45:24;;;;;;;;;1.00;1.00;;;;;12.96;78.73;101210.06;5063915;27;47305;-69
2021/10/04 00:47:50;;;;;;;;;1.00;1.00;;;;;12.95;78.66;101204.88;5072182;27;45389;-69
2021/10/04 00:50:16;;;;;;;;;2.00;1.00;;;;;12.93;79.19;101204.06;5075037;28;45512;-69
2021/10/04 00:52:42;;;;;;;;;1.00;1.00;;;;;12.92;79.58;101207.63;5073496;28;45487;-69
2021/10/04 00:55:09;;;;;;;;;1.75;1.75;;;;;12.91;79.24;101208.56;5073862;27;45366;-69
2021/10/04 00:57:35;;;;;;;;;0.75;0.75;;;;;12.89;79.55;101205.97;5073431;27;45273;-69
2021/10/04 01:00:02;;;;;;;;;1.00;1.00;;;;;12.87;79.61;101197.28;5073626;27;45275;-69
2021/10/04 01:02:27;;;;;;;;;1.50;0.00;;;;;12.84;79.07;101199.19;5073421;27;46011;-69
2021/10/04 01:04:52;;;;;;;;;3.25;1.50;;;;;12.83;79.34;101202.78;5072798;28;45384;-69
2021/10/04 01:07:17;;;;;;;;;1.25;1.25;;;;;12.81;79.44;101202.84;5073505;27;45345;-69
2021/10/04 01:09:43;;;;;;;;;2.00;1.00;;;;;12.78;79.53;101209.09;5073668;27;45458;-69
2021/10/04 01:12:09;;;;;;;;;4.00;1.50;;;;;12.72;79.43;101204.09;5071892;27;45347;-69
2021/10/04 01:14:34;;;;;;;;;2.00;2.00;;;;;12.76;79.54;101215.38;5073213;27;45456;-69
2021/10/04 01:16:59;;;;;;;;;1.50;1.00;;;;;12.73;79.95;101211.09;5075371;27;45697;-69
2021/10/04 01:19:25;;;;;;;;;1.00;1.00;;;;;12.69;79.59;101206.91;5072935;28;45425;-69
2021/10/04 01:21:51;;;;;;;;;1.75;1.00;;;;;12.72;79.85;101206.75;5068933;27;46287;-69
2021/10/04 01:24:17;;;;;;;;;1.75;1.00;;;;;12.71;79.79;101212.94;5072972;27;45596;-69
2021/10/04 01:26:43;;;;;;;;;0.25;0.25;;;;;12.72;79.78;101214.66;5073378;27;45497;-69
2021/10/04 01:29:08;;;;;;;;;0.50;0.50;;;;;12.73;79.58;101210.22;5074608;27;45444;-69
2021/10/04 01:31:34;;;;;;;;;2.00;1.00;;;;;12.71;79.70;101201.53;5071666;28;46458;-69
2021/10/04 01:34:00;;;;;;;;;0.00;0.00;;;;;12.70;80.06;101199.84;5072857;27;45351;-69
2021/10/04 01:36:27;;;;;;;;;1.00;1.00;;;;;12.69;79.79;101196.34;5073311;27;45397;-69
2021/10/04 01:38:56;;;;;;;;;1.00;1.00;;;;;12.71;79.82;101205.03;5063820;27;45685;-69
2021/10/04 01:41:21;;;;;;;;;1.00;1.00;;;;;12.71;79.60;101197.13;5064421;28;45575;-69
2021/10/04 01:43:47;;;;;;;;;1.25;1.00;;;;;12.72;79.69;101197.97;5074303;28;45490;-69
2021/10/04 01:46:13;;;;;;;;;1.50;0.50;;;;;12.70;79.86;101192.78;5070898;27;45516;-69
2021/10/04 01:48:38;;;;;;;;;2.00;1.00;;;;;12.68;80.03;101184.06;5072663;27;45389;-69
2021/10/04 01:51:04;;;;;;;;;2.00;2.00;;;;;12.69;80.24;101192.84;5071485;27;46861;-69
2021/10/04 01:53:29;;;;;;;;;1.00;1.00;;;;;12.66;79.78;101188.56;5072691;27;45530;-69
2021/10/04 01:55:55;;;;;;;;;2.75;2.00;;;;;12.67;79.57;101197.31;5074852;28;45309;-69
2021/10/04 01:58:20;;;;;;;;;2.00;1.00;;;;;12.64;79.77;101193.06;5069305;27;45449;-69
2021/10/04 02:00:47;;;;;;;;;1.00;1.00;;;;;12.62;79.60;101192.25;5075204;27;45328;-69
2021/10/04 02:03:12;;;;;;;;;1.00;1.00;;;;;12.61;79.42;101194.97;5072620;27;45679;-69
2021/10/04 02:05:38;;;;;;;;;1.75;1.00;;;;;12.56;79.76;101192.53;5076434;27;45338;-69
2021/10/04 02:08:03;;;;;;;;;1.25;0.50;;;;;12.56;79.84;101199.56;5087459;27;45243;-69
2021/10/04 02:10:31;;;;;;;;;1.75;1.00;;;;;12.52;79.74;101204.97;5076774;27;47103;-69
2021/10/04 02:12:59;;;;;;;;;1.50;0.50;;;;;12.44;79.64;101193.06;5076128;27;45395;-69
2021/10/04 02:15:25;;;;;;;;;2.00;2.00;;;;;12.44;79.55;101207.09;5076130;27;45475;-69
2021/10/04 02:17:51;;;;;;;;;0.50;0.50;;;;;12.36;80.04;101198.66;5075186;28;45306;-69
2021/10/04 02:20:19;;;;;;;;;1.00;1.00;;;;;12.38;80.11;101209.16;5074851;27;47761;-69
2021/10/04 02:22:45;;;;;;;;;1.00;1.00;;;;;12.35;80.11;101206.63;5076849;28;45603;-69
2021/10/04 02:25:12;;;;;;;;;1.00;1.00;;;;;12.31;80.10;101199.78;5076001;27;45373;-69
2021/10/04 02:27:38;;;;;;;;;1.00;1.00;;;;;12.27;80.19;101199.94;5075401;27;45556;-70
2021/10/04 02:30:12;;;;;;;;;2.00;0.75;;;;;12.27;80.16;101202.56;5074324;28;45678;-69
2021/10/04 02:32:38;;;;;;;;;4.50;2.00;;;;;12.26;80.40;101202.59;5075335;27;45911;-69
2021/10/04 02:35:04;;;;;;;;;1.00;1.00;;;;;12.24;80.45;101200.03;5077202;28;45588;-69
2021/10/04 02:37:29;;;;;;;;;1.75;1.25;;;;;12.21;80.43;101197.53;5073943;28;45301;-69
2021/10/04 02:39:55;;;;;;;;;1.00;1.00;;;;;12.17;80.50;101181.94;5075265;27;45462;-69
2021/10/04 02:42:20;;;;;;;;;1.00;1.00;;;;;12.17;80.63;101184.56;5076035;27;45449;-69
2021/10/04 02:44:46;;;;;;;;;1.50;1.50;;;;;12.14;80.56;101179.41;5075953;27;45330;-69
2021/10/04 02:47:11;;;;;;;;;2.00;1.00;;;;;12.15;80.59;101184.63;5076951;27;45330;-69
2021/10/04 02:49:36;;;;;;;;;1.75;1.00;;;;;12.14;80.63;101175.00;5075699;27;46401;-69
2021/10/04 02:52:02;;;;;;;;;1.50;1.00;;;;;12.10;80.54;101189.22;5068800;27;45287;-69
2021/10/04 02:54:27;;;;;;;;;2.50;2.00;;;;;12.12;80.55;101191.81;5064762;28;45577;-69
2021/10/04 02:56:53;;;;;;;;;1.00;1.00;;;;;12.09;80.57;101195.41;5074395;27;45528;-69
2021/10/04 02:59:18;;;;;;;;;1.25;1.00;;;;;12.10;80.39;101201.53;5076274;28;46336;-69
2021/10/04 03:01:44;;;;;;;;;2.50;0.75;;;;;12.07;80.42;101194.63;5074360;28;45423;-69
2021/10/04 03:04:10;;;;;;;;;3.00;2.00;;;;;12.06;80.74;101199.94;5077734;27;45511;-69
2021/10/04 03:06:35;;;;;;;;;1.00;0.00;;;;;12.04;80.73;101197.38;5083712;27;45337;-69
2021/10/04 03:09:00;;;;;;;;;1.00;1.00;;;;;12.00;80.50;101195.78;5070870;28;45664;-69
2021/10/04 03:11:26;;;;;;;;;1.00;1.00;;;;;11.97;80.56;101195.94;5075444;27;51659;-69
2021/10/04 03:13:51;;;;;;;;;3.25;1.00;;;;;11.92;80.75;101198.75;5075058;28;45490;-69
2021/10/04 03:16:16;;;;;;;;;2.25;1.00;;;;;11.92;80.79;101200.53;5074739;28;45289;-69
2021/10/04 03:18:42;;;;;;;;;0.75;0.25;;;;;11.92;80.70;101205.81;5074722;27;45443;-69
2021/10/04 03:21:07;;;;;;;;;1.00;1.00;;;;;11.85;80.63;101194.66;5072588;27;45396;-69
2021/10/04 03:23:32;;;;;;;;;1.00;1.00;;;;;11.87;81.01;101199.88;5075516;27;45337;-69
2021/10/04 03:25:58;;;;;;;;;1.00;1.00;;;;;11.85;80.75;101204.31;5074636;27;45529;-69
2021/10/04 03:28:23;;;;;;;;;2.50;1.75;;;;;11.80;81.13;101198.34;5074511;27;46387;-69
2021/10/04 03:30:49;;;;;;;;;1.25;1.25;;;;;11.79;80.81;101197.50;5074234;28;45597;-69
2021/10/04 03:33:14;;;;;;;;;0.50;0.50;;;;;11.79;80.62;101197.50;5075172;27;45460;-69
2021/10/04 03:35:39;;;;;;;;;1.75;1.00;;;;;11.75;81.16;101191.53;5074843;27;49520;-69
2021/10/04 03:38:05;;;;;;;;;2.00;1.00;;;;;11.73;81.02;101190.69;5076904;27;46511;-69
2021/10/04 03:40:31;;;;;;;;;1.50;1.00;;;;;11.67;81.07;101190.09;5074742;28;45425;-69
2021/10/04 03:42:56;;;;;;;;;1.00;0.50;;;;;11.65;81.07;101189.31;5074033;27;45319;-69
2021/10/04 03:45:22;;;;;;;;;4.25;1.25;;;;;11.67;80.93;101196.22;5072663;28;45310;-69
2021/10/04 03:47:47;;;;;;;;;1.00;1.00;;;;;11.65;80.93;101207.75;5072997;27;45347;-69
2021/10/04 03:50:16;;;;;;;;;1.25;1.25;;;;;11.64;81.07;101204.25;5075699;27;45388;-69
2021/10/04 03:52:42;;;;;;;;;5.00;1.75;;;;;11.63;81.11;101207.78;5073904;28;45546;-69
2021/10/04 03:55:10;;;;;;;;;4.00;2.00;;;;;11.61;81.10;101209.63;5074344;27;45429;-69
2021/10/04 03:57:37;;;;;;;;;2.00;1.00;;;;;11.61;81.10;101217.53;5072946;27;46390;-69
2021/10/04 04:00:06;;;;;;;;;1.00;1.00;;;;;11.56;81.18;101216.00;5074208;27;45697;-69
2021/10/04 04:02:32;;;;;;;;;0.75;0.75;;;;;11.56;81.21;101223.91;5073913;27;45524;-69
2021/10/04 04:04:57;;;;;;;;;1.00;1.00;;;;;11.53;81.28;101224.00;5071962;28;45500;-69
2021/10/04 04:07:22;;;;;;;;;3.50;2.00;;;;;11.45;81.33;101219.06;5070869;27;48143;-69
2021/10/04 04:09:47;;;;;;;;;2.00;0.00;;;;;11.51;81.20;101237.22;5074279;27;45383;-69
2021/10/04 04:12:13;;;;;;;;;2.00;1.00;;;;;11.49;81.44;101225.91;5081500;27;50777;-69
2021/10/04 04:14:38;;;;;;;;;6.50;2.00;;;;;11.49;81.47;101237.31;5074040;27;45580;-69
2021/10/04 04:17:04;;;;;;;;;2.00;0.50;;;;;11.47;81.55;101233.84;5076114;28;45940;-69
2021/10/04 04:19:29;;;;;;;;;1.00;0.75;;;;;11.45;81.51;101229.59;5069608;27;45517;-69
2021/10/04 04:21:54;;;;;;;;;1.75;1.75;;;;;11.41;81.22;101226.19;5072783;28;45421;-69
2021/10/04 04:24:20;;;;;;;;;2.25;1.00;;;;;11.43;81.86;101229.66;5073651;27;45379;-69
2021/10/04 04:26:46;;;;;;;;;0.25;0.25;;;;;11.42;81.77;101232.31;5072648;27;45280;-69
2021/10/04 04:29:12;;;;;;;;;1.00;1.00;;;;;11.35;81.54;101228.22;5075391;27;45333;-69
2021/10/04 04:31:38;;;;;;;;;0.00;0.00;;;;;11.44;81.74;101248.94;5074355;28;45317;-69
2021/10/04 04:34:03;;;;;;;;;1.25;1.00;;;;;11.43;81.90;101245.44;5074046;28;45308;-69
2021/10/04 04:36:28;;;;;;;;;0.25;0.25;;;;;11.42;81.71;101245.47;5070484;27;46684;-69
2021/10/04 04:38:54;;;;;;;;;4.00;2.00;;;;;11.41;81.75;101247.25;5074149;27;45306;-69
2021/10/04 04:41:19;;;;;;;;;1.75;0.50;;;;;11.41;81.76;101241.13;5074908;27;45507;-69
2021/10/04 04:43:45;;;;;;;;;1.00;1.00;;;;;11.38;81.42;101250.03;5074264;28;45850;-69
2021/10/04 04:46:11;;;;;;;;;1.00;1.00;;;;;11.32;81.69;101252.00;5073555;27;46666;-69
2021/10/04 04:48:37;;;;;;;;;3.75;2.00;;;;;11.37;81.54;101268.47;5073658;27;45446;-70
2021/10/04 04:51:03;;;;;;;;;1.00;1.00;;;;;11.35;81.57;101265.91;5073439;27;45554;-69
2021/10/04 04:53:28;;;;;;;;;0.75;0.75;;;;;11.33;81.49;101267.75;5074035;28;45338;-69
2021/10/04 04:55:53;;;;;;;;;1.00;1.00;;;;;11.32;81.21;101263.38;5074249;27;45370;-69
2021/10/04 04:58:19;;;;;;;;;0.00;0.00;;;;;11.29;81.61;101262.66;5072965;27;45443;-69
2021/10/04 05:00:44;;;;;;;;;1.00;1.00;;;;;11.31;81.28;101266.09;5073277;27;45361;-69
2021/10/04 05:03:10;;;;;;;;;1.75;1.00;;;;;11.31;81.76;101268.72;5073501;27;45416;-69
2021/10/04 05:05:35;;;;;;;;;1.50;0.00;;;;;11.27;81.45;101270.59;5072805;28;46231;-69
2021/10/04 05:08:01;;;;;;;;;0.25;0.25;;;;;11.18;81.66;101265.69;5074878;28;45341;-69
2021/10/04 05:10:26;;;;;;;;;2.25;1.00;;;;;11.24;81.42;101278.63;5073392;27;45338;-69
2021/10/04 05:12:51;;;;;;;;;1.00;1.00;;;;;11.23;81.74;101276.91;5073041;28;45511;-69
2021/10/04 05:15:16;;;;;;;;;1.00;1.00;;;;;11.20;81.64;101282.28;5070753;27;46582;-69
2021/10/04 05:17:42;;;;;;;;;1.00;1.00;;;;;11.17;81.66;101283.25;5073221;27;49117;-69
2021/10/04 05:20:08;;;;;;;;;3.75;1.50;;;;;11.16;81.71;101292.03;5071974;27;45244;-69
2021/10/04 05:22:35;;;;;;;;;1.00;1.00;;;;;11.16;81.50;101278.88;5072020;27;45278;-69
2021/10/04 05:25:02;;;;;;;;;2.00;1.00;;;;;11.14;81.90;101291.25;5066256;27;46529;-69
2021/10/04 05:27:27;;;;;;;;;2.50;0.50;;;;;11.14;81.63;101282.50;5062230;28;45381;-69
2021/10/04 05:29:53;;;;;;;;;2.00;1.00;;;;;11.11;81.49;101282.59;5065906;27;45460;-69
2021/10/04 05:32:18;;;;;;;;;2.00;1.00;;;;;11.11;81.63;101280.81;5074208;27;45594;-69
2021/10/04 05:34:43;;;;;;;;;4.00;2.00;;;;;11.09;81.79;101272.13;5077224;28;45451;-69
2021/10/04 05:37:09;;;;;;;;;2.00;2.00;;;;;11.07;81.62;101287.13;5076320;27;45673;-71
2021/10/04 05:39:34;;;;;;;;;1.00;1.00;;;;;11.07;81.77;101288.91;5076649;27;45406;-70
2021/10/04 05:41:59;;;;;;;;;2.00;1.75;;;;;11.03;81.68;101277.63;5070387;27;45477;-69
2021/10/04 05:44:25;;;;;;;;;1.50;1.50;;;;;11.04;81.70;101295.13;5061437;28;46774;-69
2021/10/04 05:46:50;;;;;;;;;1.25;1.00;;;;;11.05;81.69;101291.56;5071294;27;45527;-69
2021/10/04 05:49:15;;;;;;;;;6.00;2.25;;;;;11.01;81.76;101287.31;5075552;27;45481;-69
2021/10/04 05:51:41;;;;;;;;;3.75;3.00;;;;;10.98;81.77;101285.69;5075580;28;45560;-70
2021/10/04 05:54:06;;;;;;;;;2.00;2.00;;;;;11.01;81.85;101292.59;5071482;27;46573;-69
2021/10/04 05:56:32;;;;;;;;;1.25;1.00;;;;;11.00;82.13;101290.03;5070947;28;45369;-69
2021/10/04 05:58:57;;;;;;;;;1.00;1.00;;;;;10.96;82.06;101286.63;5072081;28;45445;-70
2021/10/04 06:01:22;;;;;;;;;2.00;2.00;;;;;10.95;82.05;101295.44;5072586;28;48697;-72
2021/10/04 06:03:47;;;;;;;;;2.50;1.00;;;;;10.94;82.12;101296.34;5069706;28;45361;-71
2021/10/04 06:06:13;;;;;;;;;3.25;2.00;;;;;10.91;82.20;101297.34;5060440;28;45407;-70
2021/10/04 06:08:38;;;;;;;;;3.00;2.00;;;;;10.96;82.11;101305.03;5068193;27;45689;-68
2021/10/04 06:11:03;;;;;;;;;3.25;1.75;;;;;10.96;82.24;101303.31;5077198;28;45603;-70
2021/10/04 06:13:29;;;;;;;;;2.00;2.00;;;;;10.94;81.92;101306.88;5070684;27;54276;-70
2021/10/04 06:15:54;;;;;;;;;1.75;1.00;;;;;10.95;81.81;101309.44;5073568;27;45409;-70
2021/10/04 06:18:19;;;;;;;;;2.50;1.00;;;;;10.95;81.98;101308.59;5070456;27;45718;-71
2021/10/04 06:20:45;;;;;;;;;2.50;1.00;;;;;10.90;82.00;101305.25;5063248;28;45469;-71
2021/10/04 06:23:11;;;;;;;;;4.00;1.50;;;;;10.95;82.07;101319.97;5078138;27;46555;-71
2021/10/04 06:25:36;;;;;;;;;3.50;2.00;;;;;10.99;81.92;101318.09;5070994;28;47949;-71
2021/10/04 06:28:01;;;;;;;;;1.00;1.00;;;;;10.97;82.24;101318.16;5074303;28;45472;-71
2021/10/04 06:30:27;;;;;;;;;4.00;2.00;;;;;11.03;82.04;101326.75;5074225;27;45496;-70
2021/10/04 06:32:53;;;;;;;;;4.00;2.00;;;;;11.04;81.72;101336.34;5087333;27;46741;-72
2021/10/04 06:35:18;;;;;;;;;1.00;1.00;;;;;11.05;82.06;101341.53;5075550;27;46731;-70
2021/10/04 06:37:44;;;;;;;;;3.75;2.25;;;;;11.06;82.00;101343.25;5075493;28;45784;-70
2021/10/04 06:40:10;;;;;;;;;1.50;1.50;;;;;11.10;81.86;101347.50;5068892;27;45496;-70
2021/10/04 06:42:35;;;;;;;;;1.50;1.50;;;;;11.11;82.08;101348.34;5064941;28;48497;-70
2021/10/04 06:45:01;;;;;;;;;3.75;1.50;;;;;11.18;81.84;101356.00;5079927;27;45412;-70
2021/10/04 06:47:26;;;;;;;;;0.75;0.75;;;;;11.26;81.63;101349.59;5074212;28;45520;-69
2021/10/04 06:49:52;;;;;;;;;3.25;2.00;;;;;11.34;81.57;101347.56;5077721;28;45406;-69
2021/10/04 06:52:18;;;;;;;;;2.25;2.00;;;;;11.40;81.76;101344.69;5088209;27;46844;-69
2021/10/04 06:54:43;;;;;;;;;2.25;2.00;;;;;11.47;81.19;101344.41;5072916;27;45602;-69
2021/10/04 06:57:09;;;;;;;;;2.00;1.00;;;;;11.58;81.34;101344.00;5078767;27;45580;-69
2021/10/04 06:59:35;;;;;;;;;1.00;1.00;;;;;11.65;81.37;101342.00;5078290;27;45994;-69
2021/10/04 07:02:01;;;;;;;;;2.75;1.75;;;;;11.80;81.22;101351.97;5081751;27;46376;-70
2021/10/04 07:04:26;;;;;;;;;3.75;1.75;;;;;12.00;81.44;101340.66;5071995;28;45713;-71
2021/10/04 07:06:51;;;;;;;;;1.50;1.50;;;;;12.32;80.96;101359.63;5072400;27;45384;-70
2021/10/04 07:09:17;;;;;;;;;1.00;1.00;;;;;12.97;80.84;101348.97;5073048;27;45639;-69
2021/10/04 07:11:42;;;;;;;;;3.00;2.00;;;;;13.49;78.47;101346.69;5060301;28;45627;-70
2021/10/04 07:14:08;;;;;;;;;4.00;3.00;;;;;13.75;77.51;101355.22;5069523;28;49720;-69
2021/10/04 07:16:33;;;;;;;;;1.00;1.00;;;;;13.88;76.83;101361.63;5073396;27;45780;-70
2021/10/04 07:19:00;;;;;;;;;3.00;2.00;;;;;14.03;76.21;101371.47;5070554;27;45514;-70
2021/10/04 07:21:25;;;;;;;;;2.50;2.00;;;;;14.13;75.76;101365.78;5071140;27;46304;-70
2021/10/04 07:23:51;;;;;;;;;6.00;2.25;;;;;14.40;75.82;101380.28;5054839;28;46013;-70
2021/10/04 07:26:16;;;;;;;;;4.25;2.00;;;;;15.01;76.09;101371.13;5058455;28;45451;-70
2021/10/04 07:28:41;;;;;;;;;3.25;1.00;;;;;16.17;74.63;101376.34;5061306;28;45374;-70
2021/10/04 07:31:08;;;;;;;;;2.00;2.00;;;;;17.24;72.12;101387.88;5068050;27;46332;-70
2021/10/04 07:33:33;;;;;;;;;2.00;2.00;;;;;18.72;70.10;101381.13;5066190;27;45415;-70
2021/10/04 07:35:58;;;;;;;;;2.75;1.00;;;;;20.02;67.33;101363.22;5068101;27;45351;-71
2021/10/04 07:38:25;;;;;;;;;2.00;2.00;;;;;20.23;64.56;101377.66;5065760;27;45346;-70
2021/10/04 07:40:50;;;;;;;;;4.00;3.25;;;;;20.09;63.45;101369.81;5078194;27;46263;-70
2021/10/04 07:43:15;;;;;;;;;1.75;1.50;;;;;20.97;63.98;101370.34;5061939;28;45481;-70
2021/10/04 07:45:41;;;;;;;;;1.00;1.00;;;;;22.39;61.62;101366.22;5068132;27;45670;-70
2021/10/04 07:48:07;;;;;;;;;3.75;2.00;;;;;23.94;58.98;101372.59;5063006;28;45513;-70
2021/10/04 07:50:33;;;;;;;;;4.00;1.75;;;;;25.46;56.81;101370.19;5069993;27;45734;-70
2021/10/04 07:52:59;;;;;;;;;1.00;1.00;;;;;26.99;54.58;101379.28;5060233;28;45660;-70
2021/10/04 07:55:25;;;;;;;;;3.00;2.00;;;;;28.26;49.95;101385.72;5061799;28;45333;-70
2021/10/04 07:57:51;;;;;;;;;2.00;1.75;;;;;29.12;50.31;101389.88;5065202;28;45395;-70
2021/10/04 08:00:18;;;;;;;;;1.25;1.25;;;;;29.93;47.51;101387.97;5070263;27;45537;-70
2021/10/04 08:02:43;;;;;;;;;1.75;1.75;;;;;30.77;46.52;101387.16;5070519;28;45609;-70
2021/10/04 08:05:10;;;;;;;;;3.00;1.00;;;;;31.55;44.68;101395.91;5067078;28;45394;-70
2021/10/04 08:07:35;;;;;;;;;2.00;2.00;;;;;32.12;43.15;101393.34;5067301;28;45538;-70
2021/10/04 08:10:00;;;;;;;;;1.75;1.50;;;;;32.88;41.61;101393.69;5063308;28;46529;-70
2021/10/04 08:12:27;;;;;;;;;2.00;2.00;;;;;33.79;40.69;101392.91;5059630;28;45616;-70
2021/10/04 08:14:53;;;;;;;;;1.00;1.00;;;;;34.25;38.95;101402.13;5072957;28;45381;-70
2021/10/04 08:17:18;;;;;;;;;4.00;1.00;;;;;34.87;37.81;101404.72;5056349;28;45489;-70
2021/10/04 08:19:45;;;;;;;;;0.75;0.00;;;;;35.29;34.98;101400.72;5073296;27;46269;-70
2021/10/04 08:22:10;;;;;;;;;1.50;1.50;;;;;35.29;34.44;101398.00;5073041;27;45500;-70
2021/10/04 08:24:35;;;;;;;;;2.00;2.00;;;;;35.53;34.09;101410.19;5073549;27;45401;-70
2021/10/04 08:27:01;;;;;;;;;2.25;2.25;;;;;36.11;34.19;101403.88;5074146;27;45238;-70
2021/10/04 08:29:26;;;;;;;;;0.75;0.25;;;;;36.68;33.21;101404.81;5073966;27;45913;-71
2021/10/04 08:31:51;;;;;;;;;0.00;0.00;;;;;36.89;33.10;101400.84;5073078;28;45299;-71
2021/10/04 08:34:17;;;;;;;;;3.50;1.25;;;;;37.35;32.68;101395.81;5073898;27;45262;-71
2021/10/04 08:36:42;;;;;;;;;0.75;0.75;;;;;37.70;31.08;101394.41;5072548;27;45352;-71
2021/10/04 08:39:07;;;;;;;;;1.25;1.25;;;;;38.32;30.30;101397.81;5072939;27;47113;-71
2021/10/04 08:41:34;;;;;;;;;4.50;1.25;;;;;38.67;30.12;101403.41;5073029;27;45396;-71
2021/10/04 08:44:04;;;;;;;;;1.50;0.00;;;;;38.97;29.22;101399.78;5075886;27;45412;-71
2021/10/04 08:46:29;;;;;;;;;0.00;0.00;;;;;39.36;28.34;101401.84;5076396;27;45676;-71
2021/10/04 08:48:55;;;;;;;;;2.00;0.00;;;;;39.43;27.31;101393.44;5073243;28;46400;-71
2021/10/04 08:51:22;;;;;;;;;0.00;0.00;;;;;39.32;26.94;101400.66;5071178;27;45455;-71
2021/10/04 08:53:48;;;;;;;;;1.75;0.25;;;;;39.51;28.51;101404.06;5074036;27;45350;-71
2021/10/04 08:56:14;;;;;;;;;3.75;0.50;;;;;39.80;26.46;101402.25;5075022;27;45507;-73
2021/10/04 08:58:40;;;;;;;;;0.25;0.00;;;;;39.95;26.83;101401.72;5074163;27;45328;-71
2021/10/04 09:01:06;;;;;;;;;0.25;0.00;;;;;40.63;26.41;101397.25;5071592;28;45603;-71
2021/10/04 09:04:02;;;;;;;;;0.00;0.00;;;;;41.10;25.44;101406.00;5070171;27;45590;-71
2021/10/04 09:06:35;;;;;;;;;0.75;0.25;;;;;41.16;25.69;101401.41;5059310;27;45473;-71
2021/10/04 09:09:09;;;;;;;;;0.00;0.00;;;;;41.41;25.75;101401.78;5072767;27;46521;-71
2021/10/04 09:11:48;;;;;;;;;0.00;0.00;;;;;41.84;25.15;101396.56;5071282;27;45501;-71
2021/10/04 09:14:17;;;;;;;;;0.00;0.00;;;;;42.15;24.29;101403.25;5071018;28;45453;-71
2021/10/04 09:16:51;;;;;;;;;1.75;0.00;;;;;42.38;23.69;101400.19;5072405;28;45433;-71
2021/10/04 09:19:29;;;;;;;;;1.50;0.25;;;;;42.54;23.99;101403.91;5072602;28;47537;-71
2021/10/04 09:22:08;;;;;;;;;0.25;0.00;;;;;42.87;24.40;101399.25;5072762;27;45539;-71
2021/10/04 09:24:37;;;;;;;;;2.75;0.00;;;;;42.84;23.17;101397.00;5073441;27;45610;-71
2021/10/04 09:27:02;;;;;;;;;1.75;0.00;;;;;42.37;22.86;101397.69;5073049;27;45297;-71
2021/10/04 09:29:46;;;;;;;;;1.00;0.00;;;;;41.62;23.15;101393.78;5073922;27;45637;-71
2021/10/04 09:32:12;;;;;;;;;0.00;0.00;;;;;41.33;23.77;101387.56;5070665;28;45260;-71
2021/10/04 09:34:37;;;;;;;;;0.00;0.00;;;;;40.95;24.16;101392.00;5072202;27;45263;-71
2021/10/04 09:37:02;;;;;;;;;2.00;0.00;;;;;40.11;24.62;101398.22;5072969;27;45318;-71
2021/10/04 09:39:31;;;;;;;;;0.25;0.00;;;;;39.01;25.48;101399.06;5072267;27;45397;-71
2021/10/04 09:42:12;;;;;;;;;0.00;0.00;;;;;38.58;25.96;101400.19;5072613;27;45720;-71
2021/10/04 09:45:00;;;;;;;;;0.00;0.00;;;;;37.71;26.30;101396.06;5071787;28;45361;-70
2021/10/04 09:47:29;;;;;;;;;0.00;0.00;;;;;36.94;27.39;101399.16;5071115;28;45361;-71
2021/10/04 09:49:56;;;;;;;;;0.00;0.00;;;;;36.21;27.11;101394.16;5072710;28;46727;-71
2021/10/04 09:52:49;;;;;;;;;0.00;0.00;;;;;35.79;27.93;101392.84;5071060;28;45583;-71
2021/10/04 09:55:30;;;;;;;;;0.00;0.00;;;;;35.26;28.38;101393.81;5065982;28;45438;-71
2021/10/04 09:58:05;;;;;;;;;0.00;0.00;;;;;35.26;28.84;101387.50;5072731;27;45340;-71
2021/10/04 10:00:42;;;;;;;;;0.00;0.00;;;;;35.14;28.93;101384.59;5072243;27;46405;-70
2021/10/04 10:03:09;;;;;;;;;0.50;0.00;;;;;34.91;28.99;101392.34;5071684;27;45799;-71
2021/10/04 10:05:37;;;;;;;;;0.00;0.00;;;;;34.34;29.82;101389.09;5073052;27;45460;-71
2021/10/04 10:08:04;;;;;;;;;1.50;0.00;;;;;33.74;29.57;101386.16;5073513;28;45386;-71
2021/10/04 10:10:30;;;;;;;;;0.00;0.00;;;;;33.54;30.24;101390.66;5070886;27;45667;-71
2021/10/04 10:12:56;;;;;;;;;0.00;0.00;;;;;33.58;30.12;101382.94;5072273;27;45432;-71
2021/10/04 10:15:24;;;;;;;;;0.25;0.00;;;;;33.56;30.69;101385.00;5072879;27;45611;-71
2021/10/04 10:17:55;;;;;;;;;1.50;0.00;;;;;33.34;30.79;101378.78;5072005;27;45483;-70
2021/10/04 10:20:22;;;;;;;;;0.75;0.75;;;;;32.73;31.08;101371.16;5074759;27;46436;-70
2021/10/04 10:22:53;;;;;;;;;0.75;0.75;;;;;32.19;30.86;101371.66;5075930;28;45472;-71
2021/10/04 10:25:33;;;;;;;;;0.50;0.00;;;;;31.48;31.85;101376.81;5074696;27;45527;-71
2021/10/04 10:27:59;;;;;;;;;0.50;0.00;;;;;30.98;33.07;101378.31;5070327;28;45470;-71
2021/10/04 10:30:26;;;;;;;;;0.50;0.00;;;;;30.59;33.65;101384.72;5072827;28;46499;-71
2021/10/04 10:32:53;;;;;;;;;1.50;0.75;;;;;30.17;33.63;101371.59;5074664;28;45540;-71
2021/10/04 10:35:45;;;;;;;;;0.75;0.00;;;;;29.44;34.18;101377.28;5076580;27;45421;-71
2021/10/04 10:38:11;;;;;;;;;0.00;0.00;;;;;28.81;35.52;101385.13;5073055;28;45446;-71
2021/10/04 10:40:36;;;;;;;;;0.75;0.50;;;;;28.26;36.10;101382.19;5071662;27;45425;-70
2021/10/04 10:43:09;;;;;;;;;3.00;0.00;;;;;28.11;36.59;101376.56;5073275;27;45483;-70
2021/10/04 10:45:54;;;;;;;;;2.75;0.75;;;;;27.86;37.07;101389.13;5073179;28;45410;-71
2021/10/04 10:48:40;;;;;;;;;0.00;0.00;;;;;27.85;37.88;101375.81;5075513;28;45511;-70
2021/10/04 10:51:09;;;;;;;;;0.00;0.00;;;;;27.52;37.42;101381.03;5069610;28;45633;-71
2021/10/04 10:53:35;;;;;;;;;2.00;1.00;;;;;27.12;38.03;101379.75;5075778;27;45420;-70
2021/10/04 10:56:04;;;;;;;;;0.25;0.25;;;;;27.02;38.58;101384.38;5077173;27;45709;-70
2021/10/04 10:58:32;;;;;;;;;1.25;0.25;;;;;26.58;39.06;101378.13;5072623;28;45563;-70
2021/10/04 11:01:18;;;;;;;;;0.50;0.50;;;;;26.36;39.43;101385.59;5075145;27;46437;-70
2021/10/04 11:03:55;;;;;;;;;1.25;0.50;;;;;26.43;39.69;101377.81;5075285;28;45303;-70
2021/10/04 11:06:44;;;;;;;;;1.50;0.00;;;;;26.33;40.02;101369.75;5075322;27;45488;-70
2021/10/04 11:09:10;;;;;;;;;0.50;0.00;;;;;26.17;40.66;101378.53;5074925;28;45634;-71
2021/10/04 11:11:36;;;;;;;;;1.00;1.00;;;;;26.10;40.94;101373.88;5074018;27;46634;-70
2021/10/04 11:14:09;;;;;;;;;1.50;0.00;;;;;26.02;40.95;101369.25;5075997;27;45366;-70
2021/10/04 11:16:37;;;;;;;;;0.00;0.00;;;;;25.59;41.00;101365.34;5074825;27;45530;-70
2021/10/04 11:19:05;;;;;;;;;0.75;0.00;;;;;25.30;41.36;101365.44;5074770;27;45452;-70
2021/10/04 11:21:32;;;;;;;;;2.00;1.00;;;;;24.71;41.84;101366.50;5074448;28;46608;-70
2021/10/04 11:24:01;;;;;;;;;1.00;1.00;;;;;24.44;43.53;101368.06;5073630;27;45477;-70